Time;durP1;ratioP1;P1;durP2;ratioP2;P2;SDS_P1;SDS_P2;PMS_P1;PMS_P2;Temp;Humidity;BMP_temperature;BMP_pressure;BME280_temperature;BME280_humidity;BME280_pressure;Samples;Min_cycle;Max_cycle;Signal;HPM_P1;HPM_P2
2022/01/31 00:01:00;;;;;;;24.37;12.10;;;0.10;99.90;;;;;;5050039;28;20270;-41
2022/01/31 00:03:26;;;;;;;22.20;10.83;;;0.00;99.90;;;;;;5049655;28;20249;-41
2022/01/31 00:05:51;;;;;;;18.43;9.23;;;0.00;99.90;;;;;;5049855;28;20218;-42
2022/01/31 00:08:23;;;;;;;17.17;9.40;;;0.10;99.90;;;;;;5049637;28;20183;-41
2022/01/31 00:10:49;;;;;;;15.27;9.33;;;0.20;99.90;;;;;;5049894;28;20211;-42
2022/01/31 00:13:21;;;;;;;16.60;9.30;;;0.20;99.90;;;;;;5033292;28;20213;-42
2022/01/31 00:15:53;;;;;;;16.33;8.43;;;0.20;99.90;;;;;;5049442;28;20701;-42
2022/01/31 00:18:20;;;;;;;15.07;8.13;;;0.20;99.90;;;;;;5033377;28;20206;-42
2022/01/31 00:20:46;;;;;;;18.87;9.20;;;0.20;99.90;;;;;;5049550;28;20177;-42
2022/01/31 00:23:12;;;;;;;20.43;9.57;;;0.10;99.90;;;;;;5049714;28;20193;-41
2022/01/31 00:25:38;;;;;;;18.47;10.10;;;0.00;99.90;;;;;;5049608;28;20184;-41
2022/01/31 00:28:04;;;;;;;15.77;8.67;;;0.00;99.90;;;;;;5032807;28;20229;-40
2022/01/31 00:30:30;;;;;;;23.47;9.50;;;0.10;99.90;;;;;;5032916;28;20265;-41
2022/01/31 00:32:56;;;;;;;16.13;8.93;;;0.20;99.90;;;;;;5037719;28;20206;-42
2022/01/31 00:35:22;;;;;;;15.00;8.70;;;0.20;99.90;;;;;;5069571;28;20172;-43
2022/01/31 00:37:47;;;;;;;15.90;8.33;;;0.30;99.90;;;;;;5052517;28;20205;-41
2022/01/31 00:40:14;;;;;;;18.67;8.27;;;0.30;99.90;;;;;;5053013;28;20175;-41
2022/01/31 00:42:40;;;;;;;21.70;9.33;;;0.30;99.90;;;;;;5069500;28;20212;-41
2022/01/31 00:47:38;;;;;;;20.63;9.60;;;0.20;99.90;;;;;;5069179;28;20187;-42
2022/01/31 00:50:09;;;;;;;16.27;8.83;;;0.20;99.90;;;;;;5052808;28;20189;-42
2022/01/31 00:52:37;;;;;;;15.93;8.87;;;0.20;99.90;;;;;;5069527;28;20224;-41
2022/01/31 00:55:05;;;;;;;18.57;8.60;;;0.30;99.90;;;;;;5052887;28;20209;-41
2022/01/31 00:57:31;;;;;;;18.70;9.30;;;0.30;99.90;;;;;;5069099;28;20213;-41
2022/01/31 00:59:57;;;;;;;17.03;8.77;;;0.30;99.90;;;;;;5052613;28;20183;-42
2022/01/31 01:02:24;;;;;;;16.27;8.40;;;0.40;99.90;;;;;;5069182;28;20254;-42
2022/01/31 01:04:51;;;;;;;17.50;8.87;;;0.50;99.90;;;;;;5069536;28;20559;-41
2022/01/31 01:07:19;;;;;;;20.53;9.27;;;0.40;99.90;;;;;;5069146;28;20214;-41
2022/01/31 01:09:46;;;;;;;16.10;8.03;;;0.40;99.90;;;;;;5054541;28;20195;-40
2022/01/31 01:12:14;;;;;;;18.80;9.40;;;0.40;99.90;;;;;;5072904;28;20183;-41
2022/01/31 01:14:40;;;;;;;15.20;8.50;;;0.40;99.90;;;;;;5073096;28;20182;-43
2022/01/31 01:17:07;;;;;;;17.03;8.30;;;0.40;99.90;;;;;;5056448;28;20219;-40
2022/01/31 01:19:33;;;;;;;17.80;9.17;;;0.50;99.90;;;;;;5056405;28;20279;-41
2022/01/31 01:22:01;;;;;;;16.33;9.17;;;0.50;99.90;;;;;;5072890;28;20187;-42
2022/01/31 01:24:27;;;;;;;15.57;8.83;;;0.50;99.90;;;;;;5056220;28;20207;-42
2022/01/31 01:26:54;;;;;;;14.80;8.87;;;0.50;99.90;;;;;;5056349;28;20180;-42
2022/01/31 01:29:22;;;;;;;15.97;9.47;;;0.60;99.90;;;;;;5072595;28;20184;-42
2022/01/31 01:31:49;;;;;;;13.97;8.27;;;0.60;99.90;;;;;;5056164;28;20218;-42
2022/01/31 01:34:17;;;;;;;17.70;8.27;;;0.60;99.90;;;;;;5057690;28;20222;-40
2022/01/31 01:36:46;;;;;;;17.27;8.97;;;0.60;99.90;;;;;;5058185;28;20626;-40
2022/01/31 01:39:12;;;;;;;18.13;9.63;;;0.50;99.90;;;;;;5073817;28;20181;-42
2022/01/31 01:41:39;;;;;;;19.63;8.53;;;0.50;99.90;;;;;;5072916;28;20184;-42
2022/01/31 01:44:05;;;;;;;18.30;9.47;;;0.50;99.90;;;;;;5072439;28;20201;-41
2022/01/31 01:46:31;;;;;;;17.10;9.07;;;0.40;99.90;;;;;;5085509;28;20194;-44
2022/01/31 01:48:59;;;;;;;18.73;9.50;;;0.40;99.90;;;;;;5052075;28;20192;-42
2022/01/31 01:51:25;;;;;;;21.60;9.53;;;0.40;99.90;;;;;;5052658;28;20189;-42
2022/01/31 01:53:50;;;;;;;21.30;9.10;;;0.50;99.90;;;;;;5052048;28;20208;-41
2022/01/31 01:56:17;;;;;;;20.80;9.13;;;0.60;99.90;;;;;;5035852;28;20274;-41
2022/01/31 01:58:44;;;;;;;16.07;8.27;;;0.60;99.90;;;;;;5035356;28;20185;-42
2022/01/31 02:01:12;;;;;;;19.37;8.67;;;0.60;99.90;;;;;;5052245;28;20208;-42
2022/01/31 02:03:58;;;;;;;15.27;8.23;;;0.60;99.90;;;;;;5066385;28;20717;-42
2022/01/31 02:06:33;;;;;;;14.50;8.07;;;0.70;99.90;;;;;;5056723;28;20217;-42
2022/01/31 02:09:02;;;;;;;14.97;6.97;;;0.60;99.90;;;;;;5055414;28;20192;-42
2022/01/31 02:11:33;;;;;;;14.83;7.67;;;0.60;99.90;;;;;;5072231;28;20236;-42
2022/01/31 02:14:00;;;;;;;14.53;6.93;;;0.60;99.90;;;;;;5055233;28;20269;-39
2022/01/31 02:16:48;;;;;;;14.97;7.93;;;0.70;99.90;;;;;;5071842;28;20226;-40
2022/01/31 02:19:21;;;;;;;16.80;7.67;;;0.70;99.90;;;;;;5055844;28;20184;-42
2022/01/31 02:22:09;;;;;;;13.37;6.87;;;0.80;99.90;;;;;;5067053;28;20217;-41
2022/01/31 02:24:54;;;;;;;16.03;7.53;;;0.80;99.90;;;;;;5072086;28;20187;-42
2022/01/31 02:27:58;;;;;;;12.60;7.13;;;0.80;99.90;;;;;;5061724;28;20174;-41
2022/01/31 02:30:24;;;;;;;13.30;7.03;;;0.90;99.90;;;;;;5071937;28;20187;-40
2022/01/31 02:32:50;;;;;;;16.10;7.50;;;0.90;99.90;;;;;;5054958;28;20211;-42
2022/01/31 02:35:16;;;;;;;18.13;8.23;;;0.80;99.90;;;;;;5054859;28;20206;-42
2022/01/31 02:37:43;;;;;;;19.87;7.90;;;0.70;99.90;;;;;;5069450;28;20215;-42
2022/01/31 02:40:30;;;;;;;15.23;7.33;;;0.80;99.90;;;;;;5071224;28;20282;-41
2022/01/31 02:42:59;;;;;;;12.10;6.87;;;0.80;99.90;;;;;;5069333;28;20287;-41
2022/01/31 02:45:28;;;;;;;12.00;6.97;;;0.90;99.90;;;;;;5070612;28;20241;-42
2022/01/31 02:47:57;;;;;;;15.63;7.33;;;0.90;99.90;;;;;;5070994;28;20213;-42
2022/01/31 02:50:24;;;;;;;12.37;6.63;;;1.00;99.90;;;;;;5054889;28;20175;-42
2022/01/31 02:53:00;;;;;;;13.80;7.03;;;1.00;99.90;;;;;;5054542;28;20227;-42
2022/01/31 02:55:26;;;;;;;9.77;5.90;;;1.10;99.90;;;;;;5054894;28;20187;-42
2022/01/31 02:57:54;;;;;;;15.73;6.57;;;1.10;99.90;;;;;;5070913;28;20318;-41
2022/01/31 03:00:21;;;;;;;12.77;6.80;;;1.20;99.90;;;;;;5054453;28;20181;-43
2022/01/31 03:03:07;;;;;;;15.70;6.77;;;1.20;99.90;;;;;;5062099;28;20227;-41
2022/01/31 03:05:35;;;;;;;12.77;6.23;;;1.30;99.90;;;;;;5034690;28;20231;-41
2022/01/31 03:08:02;;;;;;;12.33;6.67;;;1.30;99.90;;;;;;5034261;28;20585;-40
2022/01/31 03:10:28;;;;;;;16.27;6.83;;;1.40;99.90;;;;;;5051719;28;20193;-41
2022/01/31 03:12:55;;;;;;;14.27;6.47;;;1.40;99.90;;;;;;5034069;28;20274;-42
2022/01/31 03:15:21;;;;;;;11.07;6.17;;;1.50;99.90;;;;;;5034057;28;20192;-42
2022/01/31 03:18:27;;;;;;;16.90;6.30;;;1.50;99.90;;;;;;5042558;28;20186;-40
2022/01/31 03:20:52;;;;;;;14.57;6.30;;;1.50;99.90;;;;;;5034119;28;20185;-42
2022/01/31 03:23:19;;;;;;;17.47;6.30;;;1.50;99.90;;;;;;5034174;28;20227;-41
2022/01/31 03:25:45;;;;;;;13.87;7.33;;;1.60;99.90;;;;;;5034190;28;20186;-42
2022/01/31 03:28:16;;;;;;;14.27;7.17;;;1.60;99.90;;;;;;5034950;28;20188;-42
2022/01/31 03:30:42;;;;;;;10.57;6.53;;;1.60;99.90;;;;;;5050819;28;20185;-42
2022/01/31 03:33:08;;;;;;;13.27;5.73;;;1.70;99.90;;;;;;5039696;28;20235;-42
2022/01/31 03:35:34;;;;;;;16.13;6.47;;;1.70;99.90;;;;;;5054014;28;20219;-41
2022/01/31 03:38:00;;;;;;;12.50;5.83;;;1.80;99.90;;;;;;5069988;28;20200;-42
2022/01/31 03:40:28;;;;;;;15.00;6.20;;;1.80;99.90;;;;;;5070752;28;20179;-42
2022/01/31 03:42:54;;;;;;;14.23;6.00;;;1.90;99.90;;;;;;5070288;28;20238;-42
2022/01/31 03:45:20;;;;;;;13.20;5.77;;;1.90;99.90;;;;;;5053801;28;20211;-41
2022/01/31 03:47:54;;;;;;;12.07;6.13;;;1.90;99.90;;;;;;5070409;28;20184;-42
2022/01/31 03:50:19;;;;;;;13.77;6.47;;;2.00;99.90;;;;;;5053889;28;20549;-42
2022/01/31 03:52:52;;;;;;;11.63;5.57;;;2.00;99.90;;;;;;5070104;28;20208;-42
2022/01/31 03:55:18;;;;;;;10.13;5.77;;;2.00;99.90;;;;;;5053475;28;20176;-42
2022/01/31 03:57:49;;;;;;;14.37;6.70;;;2.00;99.90;;;;;;5053728;28;20697;-42
2022/01/31 04:00:25;;;;;;;10.43;5.13;;;2.10;99.90;;;;;;5070208;28;20176;-42
2022/01/31 04:02:50;;;;;;;12.03;5.07;;;2.10;99.90;;;;;;5073766;28;20256;-42
2022/01/31 04:05:16;;;;;;;11.27;4.70;;;2.20;99.90;;;;;;5091709;28;20180;-42
2022/01/31 04:07:43;;;;;;;14.07;5.33;;;2.20;99.90;;;;;;5090383;28;20214;-42
2022/01/31 04:10:09;;;;;;;13.30;5.53;;;2.20;99.90;;;;;;5091787;28;20272;-41
2022/01/31 04:12:35;;;;;;;8.77;4.60;;;2.30;99.90;;;;;;5086329;28;20265;-42
2022/01/31 04:15:00;;;;;;;11.20;4.83;;;2.30;99.90;;;;;;5070439;28;20656;-41
2022/01/31 04:17:26;;;;;;;13.57;4.00;;;2.30;99.90;;;;;;5070726;28;20267;-42
2022/01/31 04:19:52;;;;;;;13.63;4.70;;;2.40;99.90;;;;;;5069962;28;20216;-42
2022/01/31 04:22:20;;;;;;;13.83;4.53;;;2.40;99.90;;;;;;5069711;28;20177;-41
2022/01/31 04:24:48;;;;;;;7.23;3.80;;;2.40;99.90;;;;;;5069936;28;20260;-41
2022/01/31 04:27:17;;;;;;;12.73;4.07;;;2.40;99.90;;;;;;5070138;28;20188;-41
2022/01/31 04:29:44;;;;;;;11.47;4.77;;;2.50;99.90;;;;;;5069689;28;20231;-41
2022/01/31 04:32:10;;;;;;;12.13;3.73;;;2.50;99.90;;;;;;5075940;28;20194;-40
2022/01/31 04:34:36;;;;;;;7.40;4.00;;;2.50;99.90;;;;;;5089523;28;20213;-41
2022/01/31 04:37:02;;;;;;;12.77;3.90;;;2.60;99.90;;;;;;5089419;28;20216;-42
2022/01/31 04:39:29;;;;;;;12.07;4.00;;;2.60;99.90;;;;;;5089992;28;20221;-42
2022/01/31 04:41:55;;;;;;;9.33;3.97;;;2.60;99.90;;;;;;5089923;28;20187;-41
2022/01/31 04:44:22;;;;;;;13.27;3.63;;;2.70;99.90;;;;;;5092623;28;20215;-41
2022/01/31 04:46:51;;;;;;;12.73;4.10;;;2.70;99.90;;;;;;5095022;28;20192;-41
2022/01/31 04:49:21;;;;;;;9.20;4.10;;;2.70;99.90;;;;;;5095170;28;20180;-42
2022/01/31 04:51:48;;;;;;;10.63;4.17;;;2.70;99.90;;;;;;5094202;28;20184;-42
2022/01/31 04:54:14;;;;;;;14.20;4.33;;;2.70;99.90;;;;;;5093102;28;20207;-41
2022/01/31 04:56:42;;;;;;;9.10;3.77;;;2.70;99.90;;;;;;5093780;28;20211;-40
2022/01/31 04:59:08;;;;;;;10.53;3.93;;;2.80;99.90;;;;;;5093235;28;20175;-42
2022/01/31 05:01:35;;;;;;;13.77;4.37;;;2.80;99.90;;;;;;5093800;28;20185;-42
2022/01/31 05:04:01;;;;;;;8.67;3.67;;;2.80;99.90;;;;;;5081534;28;20273;-40
2022/01/31 05:06:34;;;;;;;6.23;3.00;;;2.80;99.90;;;;;;5075591;28;20256;-41
2022/01/31 05:09:00;;;;;;;11.17;3.53;;;2.80;99.90;;;;;;5076665;28;20197;-41
2022/01/31 05:11:26;;;;;;;9.50;3.57;;;2.80;99.90;;;;;;5076236;28;20184;-42
2022/01/31 05:13:52;;;;;;;8.07;3.67;;;2.90;99.90;;;;;;5072958;28;20211;-40
2022/01/31 05:16:17;;;;;;;9.83;3.70;;;2.90;99.90;;;;;;5073339;28;20209;-40
2022/01/31 05:18:44;;;;;;;9.03;3.57;;;2.90;99.90;;;;;;5073198;28;20189;-40
2022/01/31 05:21:10;;;;;;;6.60;3.50;;;2.90;99.90;;;;;;5073517;28;20170;-40
2022/01/31 05:23:37;;;;;;;10.30;3.93;;;2.80;99.90;;;;;;5074265;28;20227;-42
2022/01/31 05:26:03;;;;;;;12.37;4.23;;;2.90;99.90;;;;;;5073998;28;20223;-38
2022/01/31 05:28:29;;;;;;;10.60;4.30;;;2.90;99.90;;;;;;5074042;28;20173;-42
2022/01/31 05:30:54;;;;;;;15.10;3.80;;;2.90;99.90;;;;;;5073110;28;20177;-41
2022/01/31 05:33:20;;;;;;;7.40;3.00;;;2.90;99.90;;;;;;5081191;28;20244;-41
2022/01/31 05:35:46;;;;;;;8.57;3.70;;;2.90;99.90;;;;;;5094326;28;20274;-40
2022/01/31 05:38:12;;;;;;;11.47;3.30;;;3.00;99.90;;;;;;5094101;28;20180;-41
2022/01/31 05:40:39;;;;;;;8.50;3.30;;;3.00;99.90;;;;;;5092981;28;20293;-42
2022/01/31 05:43:05;;;;;;;8.43;2.90;;;3.00;99.90;;;;;;5083093;28;21015;-41
2022/01/31 05:45:30;;;;;;;9.47;3.60;;;3.10;99.90;;;;;;5082553;28;20282;-41
2022/01/31 05:47:57;;;;;;;8.23;3.10;;;3.10;99.90;;;;;;5089952;28;20224;-40
2022/01/31 05:50:23;;;;;;;8.53;2.90;;;3.20;99.90;;;;;;5084714;28;20193;-41
2022/01/31 05:52:49;;;;;;;9.27;2.90;;;3.30;99.90;;;;;;5081989;28;20210;-40
2022/01/31 05:55:15;;;;;;;12.83;3.57;;;3.30;99.90;;;;;;5081685;28;20186;-40
2022/01/31 05:57:44;;;;;;;7.03;3.17;;;3.30;99.90;;;;;;5073852;28;20201;-42
2022/01/31 06:00:11;;;;;;;12.07;3.50;;;3.30;99.90;;;;;;5073848;28;20258;-41
2022/01/31 06:02:39;;;;;;;6.10;2.67;;;3.40;99.90;;;;;;5057566;28;20189;-42
2022/01/31 06:05:05;;;;;;;7.83;2.97;;;3.40;99.90;;;;;;5056378;28;20173;-41
2022/01/31 06:07:31;;;;;;;7.63;2.90;;;3.40;99.90;;;;;;5074072;28;20188;-41
2022/01/31 06:09:57;;;;;;;10.20;3.03;;;3.50;99.90;;;;;;5073331;28;20193;-42
2022/01/31 06:12:23;;;;;;;9.17;3.20;;;3.50;99.90;;;;;;5073133;28;20213;-40
2022/01/31 06:14:49;;;;;;;9.23;2.67;;;3.60;99.90;;;;;;5071471;28;20181;-41
2022/01/31 06:17:14;;;;;;;9.33;3.20;;;3.60;99.90;;;;;;5055144;28;20208;-41
2022/01/31 06:19:40;;;;;;;6.03;2.77;;;3.60;99.90;;;;;;5072466;28;20177;-40
2022/01/31 06:22:14;;;;;;;7.00;2.60;;;3.60;99.90;;;;;;5057223;28;20268;-41
2022/01/31 06:24:40;;;;;;;9.17;2.87;;;3.70;99.90;;;;;;5072786;28;20204;-42
2022/01/31 06:27:21;;;;;;;3.70;2.67;;;3.70;99.90;;;;;;5057148;28;20267;-41
2022/01/31 06:29:47;;;;;;;6.53;2.47;;;3.70;99.90;;;;;;5071537;28;20338;-42
2022/01/31 06:32:25;;;;;;;5.23;2.83;;;3.70;99.90;;;;;;5056491;28;20169;-41
2022/01/31 06:34:53;;;;;;;10.57;2.83;;;3.70;99.90;;;;;;5054506;28;20685;-41
2022/01/31 06:37:19;;;;;;;5.23;3.07;;;3.80;99.90;;;;;;5072624;28;20204;-41
2022/01/31 06:39:44;;;;;;;6.80;3.13;;;3.80;99.90;;;;;;5072707;28;20649;-42
2022/01/31 06:42:10;;;;;;;9.80;3.43;;;3.80;99.90;;;;;;5054810;28;20174;-41
2022/01/31 06:44:37;;;;;;;9.00;3.13;;;3.80;99.90;;;;;;5054867;28;20178;-40
2022/01/31 06:47:03;;;;;;;10.53;3.30;;;3.90;99.90;;;;;;5071478;28;20177;-40
2022/01/31 06:49:29;;;;;;;5.37;2.70;;;4.00;99.90;;;;;;5054450;28;20181;-42
2022/01/31 06:51:54;;;;;;;10.43;3.30;;;4.00;99.90;;;;;;5054779;28;20185;-40
2022/01/31 06:54:20;;;;;;;6.60;3.03;;;4.00;99.90;;;;;;5071365;28;20202;-40
2022/01/31 06:56:46;;;;;;;11.40;3.63;;;4.10;99.90;;;;;;5071842;28;20596;-40
2022/01/31 06:59:12;;;;;;;6.13;3.23;;;4.10;99.90;;;;;;5054390;28;20213;-41
2022/01/31 07:01:38;;;;;;;6.73;3.27;;;4.00;99.90;;;;;;5054307;28;20177;-41
2022/01/31 07:04:03;;;;;;;6.50;3.20;;;4.00;99.90;;;;;;5054237;28;20292;-41
2022/01/31 07:06:29;;;;;;;11.10;3.53;;;4.00;99.90;;;;;;5053988;28;20212;-40
2022/01/31 07:08:56;;;;;;;7.30;3.23;;;4.00;99.90;;;;;;5071067;28;20230;-41
2022/01/31 07:11:25;;;;;;;11.87;3.73;;;3.90;99.90;;;;;;5054352;28;20645;-41
2022/01/31 07:14:13;;;;;;;8.50;3.50;;;3.90;99.90;;;;;;5070915;28;20231;-41
2022/01/31 07:16:39;;;;;;;9.40;3.63;;;3.90;99.90;;;;;;5071894;28;20219;-42
2022/01/31 07:19:08;;;;;;;8.60;3.27;;;3.90;99.90;;;;;;5053962;28;20272;-42
2022/01/31 07:21:39;;;;;;;10.47;3.40;;;3.90;99.90;;;;;;5054164;28;20537;-41
2022/01/31 07:26:34;;;;;;;9.27;3.93;;;3.80;99.90;;;;;;5071944;28;20182;-41
2022/01/31 07:29:00;;;;;;;6.33;3.73;;;3.80;99.90;;;;;;5070221;28;20188;-42
2022/01/31 07:31:26;;;;;;;7.77;3.73;;;3.70;99.90;;;;;;5053994;28;20308;-39
2022/01/31 07:33:52;;;;;;;5.57;3.20;;;3.70;99.90;;;;;;5070310;28;20206;-42
2022/01/31 07:36:17;;;;;;;6.77;3.57;;;3.70;99.90;;;;;;5053866;28;20692;-42
2022/01/31 07:38:43;;;;;;;9.10;3.83;;;3.70;99.90;;;;;;5070165;28;20189;-39
2022/01/31 07:41:14;;;;;;;6.43;3.30;;;3.60;99.90;;;;;;5054151;28;20180;-41
2022/01/31 07:43:43;;;;;;;8.47;3.47;;;3.60;99.90;;;;;;5070031;28;20229;-41
2022/01/31 07:46:13;;;;;;;7.33;3.80;;;3.60;99.90;;;;;;5070307;28;20185;-40
2022/01/31 07:48:39;;;;;;;6.00;3.60;;;3.60;99.90;;;;;;5053378;28;20182;-40
2022/01/31 07:51:05;;;;;;;5.27;3.27;;;3.50;99.90;;;;;;5070412;28;20177;-42
2022/01/31 07:53:31;;;;;;;4.87;3.33;;;3.50;99.90;;;;;;5070130;28;20197;-42
2022/01/31 07:56:00;;;;;;;7.00;3.23;;;3.50;99.90;;;;;;5071404;28;20211;-42
2022/01/31 07:58:26;;;;;;;8.60;3.90;;;3.50;99.90;;;;;;5069547;28;20188;-42
2022/01/31 08:00:51;;;;;;;6.60;3.47;;;3.40;99.90;;;;;;5070232;28;20173;-42
2022/01/31 08:03:17;;;;;;;7.50;3.47;;;3.40;99.90;;;;;;5053336;28;20260;-41
2022/01/31 08:05:44;;;;;;;6.67;3.10;;;3.40;99.90;;;;;;5069955;28;20182;-42
2022/01/31 08:08:10;;;;;;;8.23;3.43;;;3.40;99.90;;;;;;5069719;28;20191;-43
2022/01/31 08:10:37;;;;;;;6.93;3.47;;;3.40;99.90;;;;;;5053283;28;20173;-43
2022/01/31 08:13:05;;;;;;;5.37;3.20;;;3.40;99.90;;;;;;5069457;28;20204;-42
2022/01/31 08:15:34;;;;;;;4.10;3.10;;;3.30;99.90;;;;;;5069503;28;20197;-42
2022/01/31 08:18:00;;;;;;;4.83;3.00;;;3.30;99.90;;;;;;5057171;28;20197;-42
2022/01/31 08:20:26;;;;;;;5.97;3.23;;;3.30;99.90;;;;;;5080583;28;20169;-41
2022/01/31 08:22:52;;;;;;;5.90;3.57;;;3.30;99.90;;;;;;5080630;28;20258;-42
2022/01/31 08:25:18;;;;;;;6.57;3.47;;;3.30;99.90;;;;;;5061560;28;20250;-42
2022/01/31 08:27:48;;;;;;;5.33;3.03;;;3.30;99.90;;;;;;5057841;28;20183;-42
2022/01/31 08:30:21;;;;;;;3.90;2.73;;;3.30;99.90;;;;;;5062607;28;20239;-41
2022/01/31 08:32:58;;;;;;;8.07;3.10;;;3.30;99.90;;;;;;5076515;28;20594;-42
2022/01/31 08:38:10;;;;;;;4.07;2.73;;;3.30;99.90;;;;;;5080861;28;20544;-43
2022/01/31 08:40:38;;;;;;;5.73;2.57;;;3.30;99.90;;;;;;5076074;28;20188;-42
2022/01/31 08:43:04;;;;;;;4.17;2.30;;;3.30;99.90;;;;;;5061596;28;20193;-42
2022/01/31 08:45:30;;;;;;;2.53;1.70;;;3.30;99.90;;;;;;5078939;28;20175;-42
2022/01/31 08:47:56;;;;;;;2.20;1.80;;;3.40;99.90;;;;;;5079711;28;20185;-43
2022/01/31 08:50:22;;;;;;;3.30;1.60;;;3.40;99.90;;;;;;5078164;28;20173;-43
2022/01/31 08:52:49;;;;;;;3.73;1.60;;;3.30;99.90;;;;;;5079185;28;20309;-43
2022/01/31 08:55:15;;;;;;;2.30;1.60;;;3.30;99.90;;;;;;5079660;28;20181;-42
2022/01/31 08:57:41;;;;;;;2.67;1.37;;;3.30;99.90;;;;;;5081883;28;20208;-44
2022/01/31 09:00:07;;;;;;;2.50;1.33;;;3.30;99.90;;;;;;5069562;28;20203;-42
2022/01/31 09:02:39;;;;;;;2.37;1.10;;;3.30;99.90;;;;;;5051364;28;20712;-44
2022/01/31 09:05:06;;;;;;;3.33;1.43;;;3.20;99.90;;;;;;5068482;28;20185;-44
2022/01/31 09:07:32;;;;;;;5.57;1.43;;;3.20;99.90;;;;;;5068721;28;20237;-44
2022/01/31 09:10:00;;;;;;;2.30;1.67;;;3.10;99.90;;;;;;5052893;28;20174;-45
2022/01/31 09:12:28;;;;;;;2.73;1.70;;;3.00;99.90;;;;;;5052232;28;20177;-46
2022/01/31 09:14:54;;;;;;;2.30;1.80;;;3.10;99.90;;;;;;5068811;28;20224;-45
2022/01/31 09:17:20;;;;;;;2.33;1.60;;;3.00;99.90;;;;;;5069156;28;20562;-42
2022/01/31 09:19:45;;;;;;;2.43;1.83;;;3.10;99.90;;;;;;5068693;28;20177;-45
2022/01/31 09:22:12;;;;;;;2.20;1.73;;;3.10;99.90;;;;;;5069322;28;20181;-45
2022/01/31 09:24:39;;;;;;;4.27;2.80;;;3.10;99.90;;;;;;5069523;28;20188;-45
2022/01/31 09:27:07;;;;;;;3.37;1.90;;;3.10;99.90;;;;;;5069220;28;20557;-45
2022/01/31 09:29:33;;;;;;;5.73;2.87;;;3.20;99.90;;;;;;5052299;28;20231;-45
2022/01/31 09:32:02;;;;;;;7.50;4.90;;;3.20;99.90;;;;;;5072825;28;20177;-46
2022/01/31 09:34:30;;;;;;;8.37;6.00;;;3.40;99.90;;;;;;5090444;28;20200;-44
2022/01/31 09:36:56;;;;;;;7.77;4.70;;;3.40;99.90;;;;;;5092698;28;20283;-46
2022/01/31 09:39:22;;;;;;;5.40;3.83;;;3.40;99.90;;;;;;5094180;28;20641;-45
2022/01/31 09:41:53;;;;;;;8.13;5.20;;;3.50;99.90;;;;;;5094161;28;20246;-46
2022/01/31 09:49:32;;;;;;;2.87;1.80;;;4.00;99.90;;;;;;5092603;28;20207;-45
2022/01/31 09:51:58;;;;;;;1.57;1.30;;;4.10;99.90;;;;;;5092933;28;20277;-45
2022/01/31 09:54:25;;;;;;;1.47;1.17;;;4.30;99.90;;;;;;5092725;28;20258;-46
2022/01/31 09:56:53;;;;;;;1.23;1.00;;;4.50;99.90;;;;;;5092243;28;20299;-45
2022/01/31 09:59:20;;;;;;;1.47;1.00;;;4.60;99.90;;;;;;5088144;28;20177;-45
2022/01/31 10:01:54;;;;;;;1.23;1.03;;;4.60;99.90;;;;;;5082057;28;20177;-45
2022/01/31 10:04:23;;;;;;;1.33;1.10;;;4.80;99.90;;;;;;5078369;28;20197;-45
2022/01/31 10:06:51;;;;;;;3.07;1.20;;;5.00;99.90;;;;;;5081719;28;20170;-44
2022/01/31 10:09:28;;;;;;;3.13;1.37;;;5.20;99.90;;;;;;5065928;28;20181;-45
2022/01/31 10:12:08;;;;;;;2.37;1.33;;;5.50;99.90;;;;;;5081282;28;20193;-46
2022/01/31 10:17:30;;;;;;;4.23;1.30;;;6.00;99.90;;;;;;5081637;28;20195;-46
2022/01/31 10:20:01;;;;;;;3.67;1.33;;;6.20;99.90;;;;;;5080326;28;20198;-45
2022/01/31 10:22:31;;;;;;;1.83;1.10;;;6.30;99.90;;;;;;5064911;28;20186;-46
2022/01/31 10:25:02;;;;;;;3.37;1.20;;;6.30;99.90;;;;;;5065677;28;20169;-46
2022/01/31 10:27:36;;;;;;;1.93;1.20;;;6.20;99.90;;;;;;5082463;28;20185;-46
2022/01/31 10:30:12;;;;;;;2.17;1.10;;;6.20;99.90;;;;;;5059744;28;20192;-45
2022/01/31 10:32:41;;;;;;;2.97;1.30;;;6.00;99.90;;;;;;5061783;28;20204;-45
2022/01/31 10:35:11;;;;;;;3.73;0.93;;;5.80;99.90;;;;;;5085754;28;20270;-45
2022/01/31 10:37:40;;;;;;;1.90;1.07;;;5.70;99.90;;;;;;5090677;28;20411;-45
2022/01/31 10:46:05;;;;;;;4.10;1.43;;;5.40;99.90;;;;;;5091987;28;20188;-43
2022/01/31 10:54:08;;;;;;;1.33;1.10;;;5.30;99.90;;;;;;5090943;28;20198;-43
2022/01/31 10:56:42;;;;;;;3.00;1.63;;;5.40;99.90;;;;;;5091491;28;20196;-43
2022/01/31 10:59:18;;;;;;;2.50;1.07;;;5.40;99.90;;;;;;5078090;28;20175;-43
2022/01/31 11:01:49;;;;;;;1.97;1.10;;;5.40;99.90;;;;;;5079960;28;20231;-43
2022/01/31 11:04:16;;;;;;;2.27;1.13;;;5.50;99.90;;;;;;5059527;28;20207;-43
2022/01/31 11:06:44;;;;;;;3.70;1.30;;;5.50;99.90;;;;;;5051226;28;20279;-43
2022/01/31 11:09:12;;;;;;;4.73;1.50;;;5.60;99.90;;;;;;5050865;28;20298;-43
2022/01/31 11:11:40;;;;;;;3.93;1.47;;;5.70;99.90;;;;;;5052646;28;20178;-43
2022/01/31 11:14:07;;;;;;;3.03;1.20;;;5.70;99.90;;;;;;5050673;28;20595;-42
2022/01/31 11:16:34;;;;;;;2.10;1.00;;;5.70;99.90;;;;;;5052036;28;20210;-42
2022/01/31 11:19:06;;;;;;;2.27;1.20;;;5.70;99.90;;;;;;5050135;28;20197;-44
2022/01/31 11:21:36;;;;;;;2.87;1.27;;;5.70;99.90;;;;;;5068183;28;20178;-43
2022/01/31 11:24:05;;;;;;;1.90;1.10;;;5.70;99.90;;;;;;5079200;28;20278;-43
2022/01/31 11:26:40;;;;;;;2.27;1.30;;;5.70;99.90;;;;;;5063695;28;20183;-42
2022/01/31 11:29:07;;;;;;;1.93;1.10;;;5.60;99.90;;;;;;5063956;28;20192;-43
2022/01/31 11:31:39;;;;;;;4.93;1.33;;;5.70;99.90;;;;;;5090483;28;20183;-42
2022/01/31 11:34:08;;;;;;;1.67;0.90;;;5.60;99.90;;;;;;5064844;28;20204;-44
2022/01/31 11:36:36;;;;;;;2.93;1.10;;;5.60;99.90;;;;;;5080292;28;20209;-41
2022/01/31 11:39:07;;;;;;;3.03;1.10;;;5.70;99.90;;;;;;5075824;28;20261;-43
2022/01/31 11:41:35;;;;;;;5.07;1.27;;;5.70;99.90;;;;;;5070092;28;20259;-43
2022/01/31 11:44:46;;;;;;;2.70;1.20;;;5.70;99.90;;;;;;5052484;28;20677;-42
2022/01/31 11:47:12;;;;;;;1.63;0.93;;;5.70;99.90;;;;;;5071562;28;20178;-43
2022/01/31 11:49:48;;;;;;;2.53;1.40;;;5.70;99.90;;;;;;5053031;28;20181;-43
2022/01/31 11:52:15;;;;;;;1.40;0.97;;;5.70;99.90;;;;;;5070160;28;20174;-43
2022/01/31 11:54:53;;;;;;;4.30;1.00;;;5.60;99.90;;;;;;5052761;28;20271;-43
2022/01/31 11:57:31;;;;;;;2.30;1.20;;;5.60;99.90;;;;;;5070025;28;20264;-44
2022/01/31 12:00:18;;;;;;;4.83;1.20;;;5.50;99.90;;;;;;5053015;28;20228;-43
2022/01/31 12:02:53;;;;;;;3.90;1.17;;;5.50;99.90;;;;;;5071062;28;20232;-43
2022/01/31 12:05:28;;;;;;;2.97;0.87;;;5.50;99.90;;;;;;5070337;28;20224;-43
2022/01/31 12:08:11;;;;;;;1.97;1.07;;;5.40;99.90;;;;;;5053034;28;20190;-43
2022/01/31 12:10:44;;;;;;;3.63;1.30;;;5.40;99.90;;;;;;5053044;28;20179;-43
2022/01/31 12:13:49;;;;;;;2.90;1.20;;;5.40;99.90;;;;;;5070028;28;20201;-43
2022/01/31 12:22:25;;;;;;;2.50;1.17;;;5.20;99.90;;;;;;5070164;28;20190;-43
2022/01/31 12:24:51;;;;;;;2.13;1.10;;;5.10;99.90;;;;;;5070822;28;20292;-43
2022/01/31 12:27:27;;;;;;;3.43;1.63;;;5.00;99.90;;;;;;5069451;28;20264;-43
2022/01/31 12:29:58;;;;;;;2.80;1.30;;;4.90;99.90;;;;;;5053185;28;20259;-43
2022/01/31 12:32:37;;;;;;;1.70;1.30;;;4.90;99.90;;;;;;5053047;28;20181;-43
2022/01/31 12:35:07;;;;;;;1.87;1.00;;;4.80;99.90;;;;;;5053084;28;20181;-43
2022/01/31 12:37:36;;;;;;;3.60;1.30;;;4.70;99.90;;;;;;5069375;28;20247;-43
2022/01/31 12:40:28;;;;;;;5.80;1.40;;;4.70;99.90;;;;;;5053123;28;20179;-44
2022/01/31 12:43:07;;;;;;;2.20;1.30;;;4.70;99.90;;;;;;5070770;28;20212;-43
2022/01/31 12:45:43;;;;;;;2.97;1.40;;;4.70;99.90;;;;;;5071030;28;20215;-43
2022/01/31 12:48:09;;;;;;;3.80;1.43;;;4.80;99.90;;;;;;5068951;28;20188;-43
2022/01/31 12:50:44;;;;;;;4.40;1.30;;;4.70;99.90;;;;;;5051813;28;20293;-43
2022/01/31 12:55:58;;;;;;;4.80;1.60;;;4.70;99.90;;;;;;5080689;28;20184;-43
2022/01/31 12:58:46;;;;;;;2.83;1.20;;;4.70;99.90;;;;;;5062686;28;20204;-42
2022/01/31 13:01:27;;;;;;;4.70;1.13;;;4.70;99.90;;;;;;5077073;28;20184;-43
2022/01/31 13:03:57;;;;;;;3.80;1.37;;;4.70;99.90;;;;;;5065167;28;20204;-43
2022/01/31 13:06:46;;;;;;;4.47;1.40;;;4.70;99.90;;;;;;5092580;28;20168;-43
2022/01/31 13:09:30;;;;;;;2.43;1.13;;;4.70;99.90;;;;;;5092320;28;20177;-43
2022/01/31 13:12:06;;;;;;;3.87;1.07;;;4.70;99.90;;;;;;5087749;28;20165;-43
2022/01/31 13:14:35;;;;;;;4.67;1.43;;;4.70;99.90;;;;;;5079347;28;20561;-43
2022/01/31 13:17:07;;;;;;;3.53;1.50;;;4.60;99.90;;;;;;5080523;28;20251;-43
2022/01/31 13:19:36;;;;;;;3.93;1.30;;;4.60;99.90;;;;;;5083954;28;20419;-43
2022/01/31 13:22:08;;;;;;;1.43;1.10;;;4.50;99.90;;;;;;5067481;28;20234;-43
2022/01/31 13:24:37;;;;;;;2.63;1.27;;;4.50;99.90;;;;;;5086631;28;20181;-43
2022/01/31 13:27:05;;;;;;;4.77;1.30;;;4.40;99.90;;;;;;5082953;28;20179;-43
2022/01/31 13:29:40;;;;;;;4.83;1.77;;;4.40;99.90;;;;;;5082897;28;20184;-41
2022/01/31 13:32:14;;;;;;;2.80;1.50;;;4.40;99.90;;;;;;5078254;28;20177;-42
2022/01/31 13:34:42;;;;;;;2.63;1.30;;;4.40;99.90;;;;;;5081672;28;20207;-41
2022/01/31 13:37:31;;;;;;;5.37;1.40;;;4.40;99.90;;;;;;5084263;28;20251;-43
2022/01/31 13:40:00;;;;;;;3.03;1.13;;;4.40;99.90;;;;;;5054892;28;20179;-40